createdAt,value
2023-03-02T00:02:12.125Z,96085.81
2023-03-02T00:04:47.283Z,96082.38
2023-03-02T00:07:22.287Z,96085.81
2023-03-02T00:09:55.583Z,96092.50
2023-03-02T00:12:29.600Z,96086.13
2023-03-02T00:15:03.755Z,96091.44
2023-03-02T00:17:37.507Z,96077.72
2023-03-02T00:20:11.775Z,96084.56
2023-03-02T00:22:45.375Z,96089.09
2023-03-02T00:25:18.448Z,96086.44
2023-03-02T00:27:51.114Z,96081.91
2023-03-02T00:30:25.165Z,96088.31
2023-03-02T00:32:58.511Z,96086.75
2023-03-02T00:35:31.232Z,96088.31
2023-03-02T00:38:03.989Z,96075.34
2023-03-02T00:40:37.013Z,96094.72
2023-03-02T00:43:10.025Z,96087.53
2023-03-02T00:45:44.071Z,96078.78
2023-03-02T00:48:16.801Z,96071.13
2023-03-02T00:50:49.816Z,96070.81
2023-03-02T00:53:22.661Z,96068.97
2023-03-02T00:55:55.804Z,96067.09
2023-03-02T00:58:28.832Z,96057.56
2023-03-02T01:01:06.347Z,96055.69
2023-03-02T01:03:39.320Z,96049.59
2023-03-02T01:06:15.701Z,96056.47
2023-03-02T01:08:48.561Z,96053.03
2023-03-02T01:11:22.306Z,96056.47
2023-03-02T01:13:55.039Z,96050.03
2023-03-02T01:16:29.265Z,96046.63
2023-03-02T01:19:02.045Z,96040.53
2023-03-02T01:21:35.393Z,96041.63
2023-03-02T01:24:08.538Z,96042.88
2023-03-02T01:26:41.510Z,96040.22
2023-03-02T01:29:14.285Z,96042.88
2023-03-02T01:31:48.455Z,96043.19
2023-03-02T01:34:21.590Z,96041.34
2023-03-02T01:36:54.254Z,96033.66
2023-03-02T01:39:26.959Z,96026.78
2023-03-02T01:41:59.609Z,96028.66
2023-03-02T01:44:37.236Z,96036.31
2023-03-02T01:47:18.735Z,96033.47
2023-03-02T01:49:53.886Z,96026.31
2023-03-02T01:52:27.151Z,96020.22
2023-03-02T01:55:01.608Z,96024.72
2023-03-02T01:57:43.972Z,96028.66
2023-03-02T02:00:19.549Z,96020.69
2023-03-02T02:02:55.354Z,96009.28
2023-03-02T02:05:28.257Z,96007.13
2023-03-02T02:08:00.967Z,96006.63
2023-03-02T02:10:34.713Z,96009.28
2023-03-02T02:13:07.807Z,95997.91
2023-03-02T02:15:41.593Z,96000.53
2023-03-02T02:18:15.919Z,95998.69
2023-03-02T02:20:50.234Z,96010.06
2023-03-02T02:23:26.899Z,96005.84
2023-03-02T02:26:18.632Z,96002.91
2023-03-02T02:28:57.786Z,96004.78
2023-03-02T02:31:35.176Z,96002.41
2023-03-02T02:34:11.552Z,96002.91
2023-03-02T02:36:46.916Z,96003.69
2023-03-02T02:39:21.778Z,96001.34
2023-03-02T02:41:56.589Z,96005.06
2023-03-02T02:44:32.267Z,96010.38
2023-03-02T02:47:05.040Z,96015.69
2023-03-02T02:49:39.464Z,96010.69
2023-03-02T02:52:15.159Z,96008.31
2023-03-02T02:54:49.326Z,96009.09
2023-03-02T02:57:24.713Z,96006.78
2023-03-02T03:00:00.208Z,96004.44
2023-03-02T03:02:34.572Z,96004.13
2023-03-02T03:05:08.067Z,96005.22
2023-03-02T03:07:40.746Z,95999.13
2023-03-02T03:10:16.889Z,95992.72
2023-03-02T03:12:49.748Z,95993.81
2023-03-02T03:15:23.988Z,95999.13
2023-03-02T03:17:57.268Z,95996.00
2023-03-02T03:20:30.034Z,95994.91
2023-03-02T03:23:02.788Z,95988.81
2023-03-02T03:25:35.450Z,95986.47
2023-03-02T03:28:08.201Z,95985.38
2023-03-02T03:30:42.682Z,95991.75
2023-03-02T03:33:15.427Z,95984.88
2023-03-02T03:35:48.161Z,95995.19
2023-03-02T03:38:21.225Z,95987.06
2023-03-02T03:40:54.074Z,95985.50
2023-03-02T03:43:27.887Z,95997.22
2023-03-02T03:46:01.971Z,95993.78
2023-03-02T03:48:34.703Z,95994.06
2023-03-02T03:51:07.578Z,96002.03
2023-03-02T03:53:40.249Z,95996.25
2023-03-02T03:56:12.942Z,95993.59
2023-03-02T03:58:45.602Z,96001.56
2023-03-02T04:01:19.664Z,96003.41
2023-03-02T04:03:52.340Z,96002.63
2023-03-02T04:06:25.155Z,95997.31
2023-03-02T04:08:57.974Z,95988.59
2023-03-02T04:11:30.615Z,95990.44
2023-03-02T04:14:03.580Z,95998.13
2023-03-02T04:16:38.069Z,95994.19
2023-03-02T04:19:10.804Z,96004.03
2023-03-02T04:21:44.935Z,96002.16
2023-03-02T04:24:19.523Z,96005.59
2023-03-02T04:26:52.916Z,96004.03
2023-03-02T04:29:25.637Z,96000.59
2023-03-02T04:31:59.794Z,96007.47
2023-03-02T04:34:32.542Z,96016.19
2023-03-02T04:37:05.479Z,96004.81
2023-03-02T04:39:38.191Z,96012.47
2023-03-02T04:42:10.909Z,96019.03
2023-03-02T04:44:43.603Z,96017.97
2023-03-02T04:47:17.669Z,96015.78
2023-03-02T04:49:54.683Z,96018.91
2023-03-02T04:52:27.337Z,96017.03
2023-03-02T04:55:00.054Z,96015.16
2023-03-02T04:57:32.813Z,96009.25
2023-03-02T05:00:07.459Z,96007.38
2023-03-02T05:02:41.810Z,96010.81
2023-03-02T05:05:16.816Z,96002.88
2023-03-02T05:07:49.492Z,96004.44
2023-03-02T05:10:22.898Z,95996.78
2023-03-02T05:12:57.890Z,96006.00
2023-03-02T05:15:31.872Z,96013.63
2023-03-02T05:18:07.671Z,96015.50
2023-03-02T05:20:40.719Z,96020.34
2023-03-02T05:23:25.489Z,96019.28
2023-03-02T05:25:58.926Z,96022.72
2023-03-02T05:28:31.912Z,96028.03
2023-03-02T05:31:04.905Z,96031.75
2023-03-02T05:33:39.137Z,96034.41
2023-03-02T05:36:11.881Z,96037.50
2023-03-02T05:38:44.631Z,96042.53
2023-03-02T05:41:18.095Z,96037.22
2023-03-02T05:43:51.010Z,96027.69
2023-03-02T05:46:23.941Z,96040.66
2023-03-02T05:48:58.047Z,96048.31
2023-03-02T05:51:30.864Z,96043.00
2023-03-02T05:54:03.558Z,96046.44
2023-03-02T05:56:36.641Z,96046.16
2023-03-02T05:59:10.006Z,96049.28
2023-03-02T06:01:42.987Z,96049.28
2023-03-02T06:04:17.383Z,96056.13
2023-03-02T06:06:50.024Z,96057.72
2023-03-02T06:09:22.793Z,96058.19
2023-03-02T06:11:55.527Z,96063.50
2023-03-02T06:14:28.174Z,96067.25
2023-03-02T06:17:00.843Z,96079.13
2023-03-02T06:19:35.008Z,96068.50
2023-03-02T06:22:07.800Z,96075.69
2023-03-02T06:24:40.451Z,96085.72
2023-03-02T06:27:13.425Z,96078.84
2023-03-02T06:29:46.033Z,96083.34
2023-03-02T06:32:18.792Z,96074.31
2023-03-02T06:34:52.974Z,96084.59
2023-03-02T06:37:25.674Z,96086.16
2023-03-02T06:39:58.847Z,96086.94
2023-03-02T06:42:31.530Z,96090.88
2023-03-02T06:45:04.238Z,96095.41
2023-03-02T06:47:37.082Z,96100.91
2023-03-02T06:50:13.012Z,96095.59
2023-03-02T06:52:45.800Z,96101.84
2023-03-02T06:55:18.454Z,96109.22
2023-03-02T06:57:51.241Z,96120.31
2023-03-02T07:00:28.097Z,96121.56
2023-03-02T07:03:00.842Z,96120.19
2023-03-02T07:05:35.983Z,96123.81
2023-03-02T07:08:08.905Z,96126.13
2023-03-02T07:10:41.623Z,96121.31
2023-03-02T07:13:14.237Z,96126.81
2023-03-02T07:15:46.907Z,96128.81
2023-03-02T07:18:19.570Z,96130.09
2023-03-02T07:20:53.845Z,96135.59
2023-03-02T07:23:26.569Z,96136.53
2023-03-02T07:25:59.368Z,96144.38
2023-03-02T07:28:32.008Z,96145.31
2023-03-02T07:31:04.837Z,96141.28
2023-03-02T07:33:38.009Z,96152.06
2023-03-02T07:36:12.079Z,96151.16
2023-03-02T07:38:44.970Z,96150.84
2023-03-02T07:41:17.847Z,96157.88
2023-03-02T07:43:50.556Z,96153.06
2023-03-02T07:46:23.263Z,96156.19
2023-03-02T07:48:55.936Z,96156.97
2023-03-02T07:51:30.054Z,96166.19
2023-03-02T07:54:05.087Z,96162.44
2023-03-02T07:56:37.820Z,96166.38
2023-03-02T07:59:10.583Z,96166.56
2023-03-02T08:01:43.371Z,96175.78
2023-03-02T08:04:16.082Z,96180.19
2023-03-02T08:06:50.127Z,96173.13
2023-03-02T08:09:22.781Z,96168.00
2023-03-02T08:11:55.512Z,96178.47
2023-03-02T08:14:28.236Z,96173.03
2023-03-02T08:17:00.988Z,96176.63
2023-03-02T08:19:33.945Z,96181.81
2023-03-02T08:22:08.309Z,96176.38
2023-03-02T08:24:41.909Z,96189.50
2023-03-02T08:27:15.289Z,96186.25
2023-03-02T08:29:47.961Z,96188.00
2023-03-02T08:32:20.701Z,96186.13
2023-03-02T08:34:53.872Z,96187.03
2023-03-02T08:37:28.718Z,96189.41
2023-03-02T08:40:01.409Z,96195.19
2023-03-02T08:42:34.098Z,96191.91
2023-03-02T08:45:07.299Z,96190.50
2023-03-02T08:47:40.012Z,96179.84
2023-03-02T08:50:12.709Z,96193.63
2023-03-02T08:52:46.949Z,96184.56
2023-03-02T08:55:19.713Z,96190.66
2023-03-02T08:57:52.683Z,96200.19
2023-03-02T09:00:25.349Z,96199.44
2023-03-02T09:02:58.421Z,96196.00
2023-03-02T09:05:31.082Z,96196.78
2023-03-02T09:08:05.445Z,96198.31
2023-03-02T09:10:38.353Z,96200.19
2023-03-02T09:13:11.134Z,96198.31
2023-03-02T09:15:43.816Z,96198.31
2023-03-02T09:18:16.898Z,96205.50
2023-03-02T09:20:50.917Z,96200.19
2023-03-02T09:23:25.815Z,96201.75
2023-03-02T09:25:58.575Z,96201.75
2023-03-02T09:28:31.641Z,96203.63
2023-03-02T09:31:05.147Z,96203.63
2023-03-02T09:33:37.898Z,96210.09
2023-03-02T09:36:12.408Z,96215.06
2023-03-02T09:38:46.580Z,96209.75
2023-03-02T09:41:33.847Z,96213.19
2023-03-02T09:44:15.834Z,96221.97
2023-03-02T09:46:50.848Z,96214.47
2023-03-02T09:49:31.603Z,96219.00
2023-03-02T09:52:11.796Z,96218.38
2023-03-02T09:54:46.076Z,96222.28
2023-03-02T09:57:22.079Z,96228.38
2023-03-02T10:00:06.612Z,96225.41
2023-03-02T10:02:48.061Z,96233.41
2023-03-02T10:05:22.993Z,96231.84
2023-03-02T10:07:56.954Z,96226.81
2023-03-02T10:10:37.223Z,96227.16
2023-03-02T10:13:17.477Z,96236.72
2023-03-02T10:15:56.555Z,96228.72
2023-03-02T10:18:31.444Z,96219.63
2023-03-02T10:21:07.629Z,96214.47
2023-03-02T10:23:42.452Z,96222.63
2023-03-02T10:26:22.230Z,96218.22
2023-03-02T10:28:58.014Z,96229.34
2023-03-02T10:31:32.267Z,96232.34
2023-03-02T10:34:04.995Z,96218.22
2023-03-02T10:36:39.518Z,96225.91
2023-03-02T10:39:14.351Z,96219.47
2023-03-02T10:41:51.501Z,96236.53
2023-03-02T10:44:26.593Z,96238.41
2023-03-02T10:46:59.603Z,96237.47
2023-03-02T10:49:33.490Z,96236.53
2023-03-02T10:52:07.497Z,96234.31
2023-03-02T10:54:40.231Z,96239.00
2023-03-02T10:57:31.149Z,96239.78
2023-03-02T11:00:05.944Z,96240.56
2023-03-02T11:02:38.703Z,96239.00
2023-03-02T11:05:22.644Z,96237.91
2023-03-02T11:07:56.090Z,96239.63
2023-03-02T11:10:31.854Z,96234.00
2023-03-02T11:13:17.263Z,96241.03
2023-03-02T11:15:51.047Z,96232.72
2023-03-02T11:18:30.224Z,96233.97
2023-03-02T11:21:06.004Z,96238.66
2023-03-02T11:23:48.772Z,96233.78
2023-03-02T11:26:23.303Z,96241.16
2023-03-02T11:29:02.035Z,96240.81
2023-03-02T11:31:39.342Z,96243.19
2023-03-02T11:34:23.739Z,96251.97
2023-03-02T11:37:03.478Z,96252.75
2023-03-02T11:39:50.013Z,96256.19
2023-03-02T11:42:29.919Z,96250.88
2023-03-02T11:45:09.966Z,96252.44
2023-03-02T11:47:45.588Z,96245.53
2023-03-02T11:50:20.304Z,96247.41
2023-03-02T11:52:53.985Z,96240.19
2023-03-02T11:55:28.641Z,96242.88
2023-03-02T12:00:42.778Z,96228.13
2023-03-02T12:03:22.931Z,96231.69
2023-03-02T12:06:05.128Z,96243.00
2023-03-02T12:08:40.903Z,96228.56
2023-03-02T12:11:30.897Z,96234.81
2023-03-02T12:14:05.649Z,96237.94
2023-03-02T12:16:41.118Z,96242.66
2023-03-02T12:19:15.243Z,96238.84
2023-03-02T12:22:00.265Z,96236.66
2023-03-02T12:24:33.709Z,96231.19
2023-03-02T12:27:07.895Z,96222.41
2023-03-02T12:29:41.862Z,96219.84
2023-03-02T12:32:23.890Z,96231.47
2023-03-02T12:34:58.546Z,96218.91
2023-03-02T12:37:33.028Z,96228.59
2023-03-02T12:40:19.039Z,96228.28
2023-03-02T12:42:59.076Z,96234.88
2023-03-02T12:45:38.476Z,96227.34
2023-03-02T12:48:24.770Z,96226.19
2023-03-02T12:51:00.526Z,96222.44
2023-03-02T12:53:33.388Z,96229.34
2023-03-02T12:56:06.529Z,96222.13
2023-03-02T12:58:39.573Z,96219.75
2023-03-02T13:01:21.356Z,96222.75
2023-03-02T13:03:55.922Z,96223.41
2023-03-02T13:06:31.289Z,96221.53
2023-03-02T13:09:04.547Z,96220.13
2023-03-02T13:11:38.051Z,96223.91
2023-03-02T13:14:19.751Z,96225.81
2023-03-02T13:16:56.681Z,96218.13
2023-03-02T13:19:32.161Z,96217.81
2023-03-02T13:22:05.572Z,96219.81
2023-03-02T13:24:46.447Z,96219.50
2023-03-02T13:27:20.589Z,96221.38
2023-03-02T13:29:55.648Z,96224.50
2023-03-02T13:32:35.675Z,96224.97
2023-03-02T13:35:19.139Z,96227.97
2023-03-02T13:37:57.407Z,96228.28
2023-03-02T13:40:38.519Z,96222.47
2023-03-02T13:43:24.361Z,96218.59
2023-03-02T13:45:57.983Z,96227.69
2023-03-02T13:48:31.271Z,96229.88
2023-03-02T13:51:15.497Z,96224.09
2023-03-02T13:53:53.007Z,96231.78
2023-03-02T13:56:29.573Z,96231.78
2023-03-02T13:59:02.511Z,96232.88
2023-03-02T14:01:35.255Z,96227.84
2023-03-02T14:04:08.352Z,96234.75
2023-03-02T14:06:42.440Z,96240.88
2023-03-02T14:09:15.179Z,96236.63
2023-03-02T14:11:49.194Z,96246.84
2023-03-02T14:14:23.170Z,96234.94
2023-03-02T14:16:55.844Z,96240.56
2023-03-02T14:19:28.573Z,96238.53
2023-03-02T14:22:02.780Z,96244.84
2023-03-02T14:24:35.439Z,96243.13
2023-03-02T14:27:10.047Z,96240.63
2023-03-02T14:29:43.345Z,96236.72
2023-03-02T14:32:16.588Z,96244.91
2023-03-02T14:34:49.254Z,96242.88
2023-03-02T14:37:26.280Z,96245.72
2023-03-02T14:39:59.038Z,96243.50
2023-03-02T14:42:31.734Z,96246.84
2023-03-02T14:45:04.632Z,96243.22
2023-03-02T14:47:37.359Z,96243.88
2023-03-02T14:50:11.590Z,96248.72
2023-03-02T14:52:48.198Z,96242.78
2023-03-02T14:55:25.759Z,96252.97
2023-03-02T14:57:59.444Z,96245.91
2023-03-02T15:00:32.156Z,96241.56
2023-03-02T15:03:04.902Z,96255.81
2023-03-02T15:05:37.738Z,96250.34
2023-03-02T15:08:14.448Z,96252.38
2023-03-02T15:10:47.447Z,96253.00
2023-03-02T15:13:20.118Z,96256.59
2023-03-02T15:15:52.955Z,96255.69
2023-03-02T15:18:25.763Z,96261.63
2023-03-02T15:20:58.544Z,96270.56
2023-03-02T15:23:33.076Z,96267.75
2023-03-02T15:26:05.900Z,96265.69
2023-03-02T15:28:38.577Z,96267.44
2023-03-02T15:31:11.923Z,96268.03
2023-03-02T15:33:45.508Z,96262.56
2023-03-02T15:36:18.424Z,96266.63
2023-03-02T15:38:52.546Z,96275.25
2023-03-02T15:41:25.996Z,96277.41
2023-03-02T15:44:01.018Z,96271.94
2023-03-02T15:46:33.761Z,96270.69
2023-03-02T15:49:06.414Z,96274.44
2023-03-02T15:51:39.061Z,96268.97
2023-03-02T15:54:13.090Z,96281.00
2023-03-02T15:56:49.612Z,96275.50
2023-03-02T15:59:23.512Z,96274.59
2023-03-02T16:01:59.324Z,96274.41
2023-03-02T16:04:32.773Z,96277.72
2023-03-02T16:07:05.661Z,96283.94
2023-03-02T16:09:39.742Z,96285.97
2023-03-02T16:12:12.420Z,96279.38
2023-03-02T16:14:45.135Z,96280.31
2023-03-02T16:17:19.136Z,96285.28
2023-03-02T16:19:51.762Z,96282.78
2023-03-02T16:22:24.477Z,96283.69
2023-03-02T16:24:58.593Z,96292.56
2023-03-02T16:27:31.543Z,96300.69
2023-03-02T16:30:05.196Z,96301.09
2023-03-02T16:32:38.264Z,96295.94
2023-03-02T16:35:11.303Z,96300.31
2023-03-02T16:37:44.578Z,96304.16
2023-03-02T16:40:19.099Z,96308.53
2023-03-02T16:42:53.407Z,96305.69
2023-03-02T16:45:26.992Z,96311.59
2023-03-02T16:47:59.719Z,96314.88
2023-03-02T16:50:32.764Z,96318.16
2023-03-02T16:53:05.498Z,96314.69
2023-03-02T16:55:39.652Z,96318.78
2023-03-02T16:58:12.320Z,96315.91
2023-03-02T17:00:45.109Z,96325.75
2023-03-02T17:03:17.909Z,96324.97
2023-03-02T17:05:50.600Z,96324.19
2023-03-02T17:08:23.292Z,96321.53
2023-03-02T17:10:57.346Z,96322.63
2023-03-02T17:13:30.041Z,96327.16
2023-03-02T17:16:02.880Z,96333.09
2023-03-02T17:18:35.627Z,96333.88
2023-03-02T17:21:08.893Z,96334.47
2023-03-02T17:23:41.797Z,96343.22
2023-03-02T17:26:16.254Z,96343.81
2023-03-02T17:28:48.874Z,96346.78
2023-03-02T17:31:22.067Z,96347.09
2023-03-02T17:33:54.749Z,96349.75
2023-03-02T17:36:27.406Z,96345.03
2023-03-02T17:39:00.105Z,96352.22
2023-03-02T17:41:34.744Z,96343.75
2023-03-02T17:44:07.476Z,96345.91
2023-03-02T17:46:40.208Z,96351.84
2023-03-02T17:49:13.865Z,96356.19
2023-03-02T17:51:46.625Z,96361.13
2023-03-02T17:54:19.319Z,96359.19
2023-03-02T17:56:53.430Z,96374.47
2023-03-02T17:59:26.093Z,96362.66
2023-03-02T18:01:58.773Z,96369.16
2023-03-02T18:04:31.571Z,96361.91
2023-03-02T18:07:04.330Z,96374.78
2023-03-02T18:09:36.969Z,96368.31
2023-03-02T18:12:11.061Z,96368.22
2023-03-02T18:14:43.804Z,96371.56
2023-03-02T18:17:16.480Z,96367.72
2023-03-02T18:19:49.257Z,96372.44
2023-03-02T18:22:22.128Z,96376.06
2023-03-02T18:24:54.800Z,96371.72
2023-03-02T18:27:28.954Z,96378.78
2023-03-02T18:30:01.620Z,96377.38
2023-03-02T18:32:34.327Z,96376.00
2023-03-02T18:35:07.462Z,96384.41
2023-03-02T18:37:40.569Z,96381.09
2023-03-02T18:40:13.673Z,96377.84
2023-03-02T18:42:48.466Z,96384.84
2023-03-02T18:45:23.100Z,96385.50
2023-03-02T18:47:56.163Z,96388.03
2023-03-02T18:50:29.580Z,96391.00
2023-03-02T18:53:02.207Z,96396.66
2023-03-02T18:55:37.248Z,96394.88
2023-03-02T18:58:17.553Z,96393.88
2023-03-02T19:00:50.329Z,96401.28
2023-03-02T19:03:24.972Z,96395.81
2023-03-02T19:05:58.331Z,96397.16
2023-03-02T19:08:31.105Z,96400.88
2023-03-02T19:11:04.770Z,96394.78
2023-03-02T19:13:38.869Z,96403.78
2023-03-02T19:16:11.635Z,96395.38
2023-03-02T19:18:44.373Z,96401.72
2023-03-02T19:21:17.269Z,96395.94
2023-03-02T19:23:49.976Z,96397.28
2023-03-02T19:26:22.640Z,96395.22
2023-03-02T19:28:56.738Z,96401.84
2023-03-02T19:31:30.645Z,96398.69
2023-03-02T19:34:04.165Z,96396.59
2023-03-02T19:36:36.942Z,96400.38
2023-03-02T19:39:10.245Z,96397.53
2023-03-02T19:41:42.994Z,96399.44
2023-03-02T19:44:17.415Z,96401.63
2023-03-02T19:46:50.042Z,96399.06
2023-03-02T19:49:22.698Z,96400.16
2023-03-02T19:51:55.906Z,96407.38
2023-03-02T19:54:28.766Z,96410.09
2023-03-02T19:57:03.538Z,96410.41
2023-03-02T19:59:41.265Z,96409.94
2023-03-02T20:02:15.271Z,96400.50
2023-03-02T20:04:49.958Z,96410.56
2023-03-02T20:07:22.746Z,96408.75
2023-03-02T20:09:55.408Z,96406.66
2023-03-02T20:12:28.501Z,96405.88
2023-03-02T20:15:03.608Z,96410.63
2023-03-02T20:17:36.303Z,96412.00
2023-03-02T20:20:09.659Z,96414.13
2023-03-02T20:22:42.299Z,96419.41
2023-03-02T20:25:15.168Z,96414.41
2023-03-02T20:27:49.044Z,96416.25
2023-03-02T20:30:27.841Z,96420.75
2023-03-02T20:33:00.959Z,96417.03
2023-03-02T20:35:35.195Z,96415.47
2023-03-02T20:38:08.922Z,96418.09
2023-03-02T20:40:42.416Z,96413.88
2023-03-02T20:43:15.447Z,96416.00
2023-03-02T20:45:49.650Z,96410.72
2023-03-02T20:48:22.779Z,96417.38
2023-03-02T20:50:55.636Z,96414.50
2023-03-02T20:53:28.544Z,96420.31
2023-03-02T20:56:01.257Z,96419.31
2023-03-02T20:58:33.901Z,96418.25
2023-03-02T21:01:08.175Z,96419.09
2023-03-02T21:03:41.429Z,96432.84
2023-03-02T21:06:15.242Z,96427.34
2023-03-02T21:08:48.065Z,96435.28
2023-03-02T21:11:21.632Z,96435.06
2023-03-02T21:13:56.025Z,96430.59
2023-03-02T21:16:32.338Z,96429.59
2023-03-02T21:19:05.385Z,96430.38
2023-03-02T21:21:41.986Z,96425.44
2023-03-02T21:24:17.035Z,96432.81
2023-03-02T21:26:51.110Z,96431.50
2023-03-02T21:29:24.550Z,96433.91
2023-03-02T21:31:58.789Z,96434.19
2023-03-02T21:34:31.512Z,96431.28
2023-03-02T21:37:04.480Z,96434.72
2023-03-02T21:39:37.934Z,96429.22
2023-03-02T21:42:10.668Z,96429.75
2023-03-02T21:44:43.678Z,96427.38
2023-03-02T21:47:17.970Z,96416.03
2023-03-02T21:49:50.620Z,96419.44
2023-03-02T21:52:27.257Z,96414.44
2023-03-02T21:54:59.904Z,96415.22
2023-03-02T21:57:32.677Z,96407.84
2023-03-02T22:00:06.193Z,96416.81
2023-03-02T22:02:40.359Z,96418.97
2023-03-02T22:05:13.085Z,96410.00
2023-03-02T22:07:45.832Z,96409.22
2023-03-02T22:10:25.838Z,96408.44
2023-03-02T22:13:03.633Z,96408.69
2023-03-02T22:15:36.362Z,96407.13
2023-03-02T22:18:12.567Z,96406.84
2023-03-02T22:20:45.969Z,96401.31
2023-03-02T22:23:21.004Z,96396.81
2023-03-02T22:25:54.745Z,96399.97
2023-03-02T22:28:29.104Z,96406.78
2023-03-02T22:31:01.828Z,96399.13
2023-03-02T22:33:37.934Z,96405.94
2023-03-02T22:36:15.248Z,96395.34
2023-03-02T22:38:47.991Z,96400.03
2023-03-02T22:41:21.321Z,96401.09
2023-03-02T22:43:54.144Z,96402.34
2023-03-02T22:46:27.082Z,96399.69
2023-03-02T22:49:01.410Z,96404.91
2023-03-02T22:51:35.224Z,96410.66
2023-03-02T22:54:15.420Z,96411.19
2023-03-02T22:56:49.559Z,96405.38
2023-03-02T22:59:24.849Z,96403.72
2023-03-02T23:01:59.558Z,96405.31
2023-03-02T23:04:37.300Z,96399.47
2023-03-02T23:07:15.318Z,96398.69
2023-03-02T23:09:48.047Z,96407.09
2023-03-02T23:12:23.143Z,96410.84
2023-03-02T23:14:56.652Z,96404.47
2023-03-02T23:17:32.742Z,96401.06
2023-03-02T23:20:08.553Z,96401.56
2023-03-02T23:22:41.310Z,96405.25
2023-03-02T23:25:14.705Z,96401.34
2023-03-02T23:27:47.321Z,96403.69
2023-03-02T23:30:22.815Z,96398.97
2023-03-02T23:32:55.588Z,96406.09
2023-03-02T23:35:29.667Z,96405.84
2023-03-02T23:38:02.339Z,96392.44
2023-03-02T23:40:35.457Z,96401.41
2023-03-02T23:43:08.169Z,96390.88
2023-03-02T23:45:40.848Z,96389.59
2023-03-02T23:48:13.536Z,96394.63
2023-03-02T23:50:47.640Z,96396.53
2023-03-02T23:53:20.313Z,96396.53
2023-03-02T23:55:54.151Z,96398.97
2023-03-02T23:58:26.835Z,96387.63
